createdAt,value
2022-12-09T00:02:31.493Z,11.55
2022-12-09T00:05:34.220Z,9.40
2022-12-09T00:08:36.980Z,10.63
2022-12-09T00:11:39.736Z,11.33
2022-12-09T00:14:42.410Z,9.93
2022-12-09T00:17:46.900Z,9.43
2022-12-09T00:20:49.517Z,9.83
2022-12-09T00:23:53.318Z,11.43
2022-12-09T00:29:58.679Z,14.93
2022-12-09T00:33:03.236Z,13.03
2022-12-09T00:36:07.380Z,11.73
2022-12-09T00:39:12.137Z,10.67
2022-12-09T00:42:14.946Z,16.13
2022-12-09T00:45:17.681Z,9.67
2022-12-09T00:48:21.774Z,10.43
2022-12-09T00:51:26.562Z,9.77
2022-12-09T00:54:29.564Z,10.27
2022-12-09T00:57:32.872Z,10.30
2022-12-09T01:00:35.948Z,11.88
2022-12-09T01:03:40.739Z,12.77
2022-12-09T01:06:44.106Z,9.83
2022-12-09T01:09:47.143Z,9.48
2022-12-09T01:12:49.914Z,13.20
2022-12-09T01:15:52.728Z,13.37
2022-12-09T01:18:59.559Z,12.77
2022-12-09T01:22:02.647Z,11.90
2022-12-09T01:25:05.989Z,9.88
2022-12-09T01:28:08.665Z,11.70
2022-12-09T01:31:13.885Z,10.03
2022-12-09T01:34:18.194Z,10.07
2022-12-09T01:37:21.170Z,10.83
2022-12-09T01:40:24.302Z,8.32
2022-12-09T01:43:27.389Z,10.35
2022-12-09T01:46:30.465Z,9.40
2022-12-09T01:49:38.535Z,10.25
2022-12-09T01:52:41.494Z,8.40
2022-12-09T01:55:45.173Z,8.52
2022-12-09T01:58:48.420Z,11.30
2022-12-09T02:01:52.604Z,7.55
2022-12-09T02:04:56.784Z,8.30
2022-12-09T02:08:00.086Z,7.23
2022-12-09T02:11:09.431Z,9.68
2022-12-09T02:14:17.902Z,10.73
2022-12-09T02:17:28.084Z,7.97
2022-12-09T02:20:36.668Z,8.97
2022-12-09T02:23:41.609Z,8.03
2022-12-09T02:26:46.825Z,9.10
2022-12-09T02:29:58.595Z,8.77
2022-12-09T02:33:15.535Z,10.83
2022-12-09T02:36:21.547Z,11.97
2022-12-09T02:39:27.818Z,15.60
2022-12-09T02:42:33.587Z,14.27
2022-12-09T02:45:37.122Z,15.50
2022-12-09T02:48:42.474Z,9.55
2022-12-09T02:51:46.860Z,12.77
2022-12-09T02:54:49.600Z,11.00
2022-12-09T02:57:56.901Z,10.13
2022-12-09T03:00:59.894Z,9.40
2022-12-09T03:04:03.890Z,16.17
2022-12-09T03:07:14.817Z,9.80
2022-12-09T03:10:19.703Z,10.57
2022-12-09T03:13:32.242Z,10.10
2022-12-09T03:16:37.702Z,9.23
2022-12-09T03:19:44.809Z,8.40
2022-12-09T03:22:49.824Z,10.43
2022-12-09T03:25:54.883Z,10.40
2022-12-09T03:28:59.834Z,10.77
2022-12-09T03:32:03.018Z,10.77
2022-12-09T03:35:09.553Z,15.90
2022-12-09T03:38:16.621Z,12.85
2022-12-09T03:41:23.609Z,13.25
2022-12-09T03:44:31.856Z,12.73
2022-12-09T03:47:35.608Z,10.13
2022-12-09T03:53:49.793Z,13.27
2022-12-09T03:56:55.489Z,11.07
2022-12-09T04:00:00.967Z,11.07
2022-12-09T04:03:04.247Z,11.10
2022-12-09T04:06:07.647Z,9.98
2022-12-09T04:09:13.899Z,11.27
2022-12-09T04:12:17.088Z,13.70
2022-12-09T04:15:19.988Z,13.80
2022-12-09T04:18:23.625Z,15.82
2022-12-09T04:21:27.529Z,12.80
2022-12-09T04:24:31.730Z,14.45
2022-12-09T04:27:35.016Z,11.80
2022-12-09T04:30:37.718Z,12.23
2022-12-09T04:33:41.252Z,13.03
2022-12-09T04:36:43.897Z,13.02
2022-12-09T04:39:48.175Z,14.60
2022-12-09T04:42:50.786Z,12.20
2022-12-09T04:45:53.744Z,12.53
2022-12-09T04:48:56.952Z,10.40
2022-12-09T04:52:00.156Z,10.27
2022-12-09T04:55:04.677Z,11.25
2022-12-09T04:58:07.551Z,11.00
2022-12-09T05:01:15.630Z,13.10
2022-12-09T05:04:19.951Z,12.07
2022-12-09T05:07:25.352Z,12.07
2022-12-09T05:10:29.556Z,11.70
2022-12-09T05:13:32.748Z,11.10
2022-12-09T05:16:35.747Z,15.48
2022-12-09T05:19:38.856Z,11.15
2022-12-09T05:22:41.779Z,14.10
2022-12-09T05:25:46.024Z,11.70
2022-12-09T05:28:48.879Z,12.07
2022-12-09T05:31:52.611Z,13.50
2022-12-09T05:37:58.411Z,10.67
2022-12-09T05:41:02.808Z,12.68
2022-12-09T05:44:05.774Z,17.03
2022-12-09T05:47:08.676Z,12.88
2022-12-09T05:50:12.320Z,14.85
2022-12-09T05:53:15.641Z,22.00
2022-12-09T05:56:21.395Z,12.20
2022-12-09T05:59:24.316Z,13.03
2022-12-09T06:02:27.118Z,12.17
2022-12-09T06:05:30.121Z,13.57
2022-12-09T06:08:33.292Z,11.20
2022-12-09T06:11:37.671Z,14.07
2022-12-09T06:14:40.566Z,15.00
2022-12-09T06:17:43.420Z,18.90
2022-12-09T06:20:46.179Z,16.90
2022-12-09T06:23:49.794Z,17.03
2022-12-09T06:26:55.703Z,19.60
2022-12-09T06:29:58.939Z,18.73
2022-12-09T06:33:02.162Z,12.70
2022-12-09T06:36:06.587Z,10.73
2022-12-09T06:39:11.067Z,16.00
2022-12-09T06:42:15.640Z,17.00
2022-12-09T06:45:18.672Z,13.93
2022-12-09T06:48:21.664Z,20.10
2022-12-09T06:51:26.774Z,17.13
2022-12-09T06:54:30.372Z,17.07
2022-12-09T06:57:35.713Z,12.02
2022-12-09T07:00:40.437Z,12.23
2022-12-09T07:03:46.748Z,15.40
2022-12-09T07:06:49.840Z,16.17
2022-12-09T07:09:53.435Z,18.33
2022-12-09T07:12:57.583Z,10.88
2022-12-09T07:16:00.587Z,14.87
2022-12-09T07:19:04.236Z,15.38
2022-12-09T07:22:07.492Z,12.85
2022-12-09T07:25:11.196Z,18.30
2022-12-09T07:31:21.280Z,11.93
2022-12-09T07:34:24.275Z,17.73
2022-12-09T07:37:27.650Z,12.70
2022-12-09T07:40:30.944Z,15.80
2022-12-09T07:43:36.100Z,13.10
2022-12-09T07:46:39.785Z,9.80
2022-12-09T07:52:45.798Z,16.67
2022-12-09T07:55:49.004Z,15.60
2022-12-09T07:58:54.642Z,17.92
2022-12-09T08:02:04.194Z,9.53
2022-12-09T08:05:10.543Z,16.53
2022-12-09T08:08:13.949Z,13.17
2022-12-09T08:11:19.804Z,14.50
2022-12-09T08:14:23.986Z,11.67
2022-12-09T08:17:27.406Z,14.50
2022-12-09T08:20:30.966Z,10.90
2022-12-09T08:23:34.932Z,11.20
2022-12-09T08:26:39.437Z,14.45
2022-12-09T08:29:44.448Z,15.40
2022-12-09T08:32:48.514Z,15.57
2022-12-09T08:35:51.774Z,12.50
2022-12-09T08:38:55.417Z,13.27
2022-12-09T08:41:58.260Z,16.17
2022-12-09T08:45:03.256Z,14.03
2022-12-09T08:48:07.048Z,12.33
2022-12-09T08:51:11.383Z,14.60
2022-12-09T08:54:14.636Z,15.77
2022-12-09T08:57:17.938Z,14.77
2022-12-09T09:00:23.257Z,18.40
2022-12-09T09:03:27.320Z,22.83
2022-12-09T09:09:33.447Z,14.47
2022-12-09T09:12:42.370Z,14.93
2022-12-09T09:15:48.078Z,15.20
2022-12-09T09:18:52.722Z,14.53
2022-12-09T09:21:56.234Z,10.73
2022-12-09T09:24:59.549Z,14.65
2022-12-09T09:28:02.933Z,15.27
2022-12-09T09:31:09.410Z,11.85
2022-12-09T09:34:13.195Z,15.30
2022-12-09T09:37:15.986Z,19.05
2022-12-09T09:40:19.774Z,14.48
2022-12-09T09:43:25.312Z,15.60
2022-12-09T09:46:36.368Z,17.90
2022-12-09T09:49:46.260Z,12.63
2022-12-09T09:52:51.279Z,15.10
2022-12-09T09:55:58.288Z,21.47
2022-12-09T09:59:10.432Z,14.17
2022-12-09T10:02:30.844Z,17.07
2022-12-09T10:05:36.129Z,15.67
2022-12-09T10:08:43.616Z,15.67
2022-12-09T10:11:56.557Z,17.20
2022-12-09T10:15:03.540Z,21.10
2022-12-09T10:18:12.987Z,15.00
2022-12-09T10:21:18.758Z,16.27
2022-12-09T10:24:25.031Z,14.13
2022-12-09T10:27:32.146Z,17.33
2022-12-09T10:30:43.685Z,18.93
2022-12-09T10:33:50.589Z,19.10
2022-12-09T10:36:53.836Z,15.63
2022-12-09T10:40:03.444Z,16.98
2022-12-09T10:43:38.864Z,16.07
2022-12-09T10:46:42.696Z,15.60
2022-12-09T10:49:47.524Z,17.55
2022-12-09T10:52:50.772Z,19.97
2022-12-09T10:55:54.923Z,18.30
2022-12-09T10:59:10.800Z,19.63
2022-12-09T11:02:21.084Z,17.53
2022-12-09T11:05:29.071Z,21.83
2022-12-09T11:08:33.268Z,23.60
2022-12-09T11:11:41.389Z,17.97
2022-12-09T11:14:51.752Z,19.63
2022-12-09T11:17:59.856Z,20.17
2022-12-09T11:21:06.261Z,21.67
2022-12-09T11:24:21.332Z,25.97
2022-12-09T11:27:28.079Z,18.67
2022-12-09T11:30:33.348Z,20.67
2022-12-09T11:33:37.585Z,16.43
2022-12-09T11:36:44.997Z,19.47
2022-12-09T11:39:50.651Z,16.57
2022-12-09T11:42:54.652Z,26.10
2022-12-09T11:45:57.299Z,16.90
2022-12-09T11:49:03.784Z,18.57
2022-12-09T11:52:24.058Z,22.77
2022-12-09T11:55:27.846Z,17.80
2022-12-09T11:58:34.946Z,22.00
2022-12-09T12:01:45.920Z,20.70
2022-12-09T12:04:56.861Z,23.77
2022-12-09T12:11:40.882Z,17.37
2022-12-09T12:14:45.268Z,19.83
2022-12-09T12:17:50.927Z,30.63
2022-12-09T12:21:15.872Z,22.03
2022-12-09T12:24:46.826Z,18.47
2022-12-09T12:28:01.436Z,23.03
2022-12-09T12:31:13.243Z,23.93
2022-12-09T12:34:27.209Z,21.63
2022-12-09T12:37:41.335Z,26.65
2022-12-09T12:44:18.887Z,19.47
2022-12-09T12:47:24.978Z,20.00
2022-12-09T12:50:44.582Z,18.30
2022-12-09T12:53:52.475Z,26.20
2022-12-09T12:57:09.415Z,23.23
2022-12-09T13:00:16.269Z,23.67
2022-12-09T13:03:24.035Z,20.90
2022-12-09T13:06:40.853Z,19.90
2022-12-09T13:09:46.274Z,20.50
2022-12-09T13:12:56.783Z,28.63
2022-12-09T13:16:02.194Z,18.73
2022-12-09T13:19:13.401Z,26.87
2022-12-09T13:22:21.859Z,23.10
2022-12-09T13:25:28.407Z,20.17
2022-12-09T13:28:40.349Z,20.40
2022-12-09T13:31:49.431Z,21.07
2022-12-09T13:34:55.127Z,21.87
2022-12-09T13:38:01.816Z,21.40
2022-12-09T13:41:59.039Z,21.83
2022-12-09T13:45:07.624Z,22.70
2022-12-09T13:48:38.615Z,21.23
2022-12-09T13:51:45.927Z,23.70
2022-12-09T13:54:49.408Z,20.27
2022-12-09T13:57:55.285Z,21.08
2022-12-09T14:01:06.043Z,22.87
2022-12-09T14:04:15.056Z,22.97
2022-12-09T14:07:24.155Z,22.20
2022-12-09T14:10:38.383Z,23.20
2022-12-09T14:13:41.120Z,23.13
2022-12-09T14:16:45.511Z,23.90
2022-12-09T14:19:56.499Z,23.80
2022-12-09T14:23:13.516Z,23.97
2022-12-09T14:26:35.299Z,29.70
2022-12-09T14:29:54.351Z,24.80
2022-12-09T14:32:58.802Z,25.33
2022-12-09T14:36:05.307Z,28.47
2022-12-09T14:39:24.341Z,24.27
2022-12-09T14:42:36.284Z,34.10
2022-12-09T14:45:49.384Z,24.63
2022-12-09T14:48:57.192Z,26.23
2022-12-09T14:52:01.710Z,25.70
2022-12-09T14:55:08.401Z,23.93
2022-12-09T14:58:19.629Z,29.03
2022-12-09T15:01:22.468Z,32.80
2022-12-09T15:04:31.890Z,31.90
2022-12-09T15:07:35.787Z,30.03
2022-12-09T15:10:39.499Z,32.97
2022-12-09T15:13:44.303Z,31.70
2022-12-09T15:16:50.578Z,28.10
2022-12-09T15:20:02.313Z,33.77
2022-12-09T15:23:07.315Z,31.87
2022-12-09T15:26:20.466Z,32.73
2022-12-09T15:29:23.880Z,32.05
2022-12-09T15:32:29.520Z,36.10
2022-12-09T15:35:34.849Z,34.37
2022-12-09T15:38:42.336Z,34.20
2022-12-09T15:42:12.227Z,33.63
2022-12-09T15:45:17.279Z,30.33
2022-12-09T15:48:22.068Z,36.63
2022-12-09T15:51:27.146Z,40.67
2022-12-09T15:54:32.209Z,33.67
2022-12-09T15:57:36.264Z,36.67
2022-12-09T16:00:40.560Z,38.00
2022-12-09T16:03:43.358Z,39.97
2022-12-09T16:06:47.877Z,35.70
2022-12-09T16:10:07.962Z,36.03
2022-12-09T16:13:14.607Z,41.10
2022-12-09T16:16:25.655Z,37.73
2022-12-09T16:19:34.956Z,35.83
2022-12-09T16:22:39.588Z,40.00
2022-12-09T16:25:45.829Z,34.40
2022-12-09T16:28:55.678Z,44.60
2022-12-09T16:32:21.335Z,41.70
2022-12-09T16:35:27.115Z,42.80
2022-12-09T16:38:32.317Z,39.93
2022-12-09T16:41:56.700Z,39.07
2022-12-09T16:48:17.844Z,36.93
2022-12-09T16:51:24.554Z,43.70
2022-12-09T16:54:28.674Z,43.90
2022-12-09T16:57:31.592Z,47.17
2022-12-09T17:00:34.159Z,41.92
2022-12-09T17:03:39.443Z,41.77
2022-12-09T17:06:42.396Z,42.43
2022-12-09T17:09:46.557Z,45.63
2022-12-09T17:12:49.986Z,45.83
2022-12-09T17:15:58.109Z,36.67
2022-12-09T17:19:01.199Z,40.30
2022-12-09T17:22:05.637Z,58.63
2022-12-09T17:25:10.723Z,68.83
2022-12-09T17:28:13.367Z,56.17
2022-12-09T17:31:18.355Z,55.03
2022-12-09T17:34:21.555Z,53.17
2022-12-09T17:37:24.384Z,45.50
2022-12-09T17:40:28.498Z,46.10
2022-12-09T17:43:31.585Z,43.20
2022-12-09T17:46:34.912Z,50.05
2022-12-09T17:49:38.093Z,44.05
2022-12-09T17:52:42.428Z,42.67
2022-12-09T17:55:46.371Z,50.03
2022-12-09T18:01:52.314Z,41.90
2022-12-09T18:04:54.977Z,53.63
2022-12-09T18:07:57.778Z,50.83
2022-12-09T18:11:05.474Z,50.83
2022-12-09T18:14:09.885Z,52.97
2022-12-09T18:17:13.458Z,50.43
2022-12-09T18:20:16.443Z,51.50
2022-12-09T18:23:29.295Z,45.00
2022-12-09T18:26:38.303Z,41.83
2022-12-09T18:29:44.713Z,46.87
2022-12-09T18:32:47.405Z,44.15
2022-12-09T18:35:50.128Z,44.17
2022-12-09T18:38:53.863Z,47.43
2022-12-09T18:41:58.034Z,49.88
2022-12-09T18:45:00.663Z,47.53
2022-12-09T18:48:03.679Z,47.57
2022-12-09T18:51:08.646Z,48.50
2022-12-09T18:54:16.272Z,50.03
2022-12-09T18:57:20.220Z,48.30
2022-12-09T19:03:25.762Z,45.30
2022-12-09T19:06:29.878Z,45.40
2022-12-09T19:09:34.947Z,47.30
2022-12-09T19:12:46.922Z,50.93
2022-12-09T19:15:50.115Z,47.20
2022-12-09T19:18:53.593Z,49.00
2022-12-09T19:21:56.353Z,47.53
2022-12-09T19:24:59.108Z,45.70
2022-12-09T19:28:03.156Z,44.33
2022-12-09T19:31:14.175Z,48.20
2022-12-09T19:34:18.498Z,43.90
2022-12-09T19:37:21.166Z,40.80
2022-12-09T19:40:23.978Z,46.03
2022-12-09T19:43:28.097Z,49.87
2022-12-09T19:46:30.849Z,41.80
2022-12-09T19:49:33.592Z,47.73
2022-12-09T19:52:36.869Z,42.17
2022-12-09T19:55:39.929Z,44.83
2022-12-09T19:58:45.057Z,46.30
2022-12-09T20:01:47.903Z,46.03
2022-12-09T20:04:51.381Z,45.73
2022-12-09T20:07:54.724Z,45.20
2022-12-09T20:10:57.357Z,43.55
2022-12-09T20:14:02.967Z,46.20
2022-12-09T20:17:05.796Z,46.87
2022-12-09T20:20:10.694Z,38.40
2022-12-09T20:23:13.688Z,48.13
2022-12-09T20:26:18.980Z,46.73
2022-12-09T20:29:23.166Z,40.77
2022-12-09T20:32:26.043Z,40.90
2022-12-09T20:35:28.729Z,45.38
2022-12-09T20:38:31.897Z,47.17
2022-12-09T20:41:34.840Z,50.83
2022-12-09T20:44:38.971Z,43.78
2022-12-09T20:47:42.170Z,37.83
2022-12-09T20:50:45.037Z,40.33
2022-12-09T20:53:48.754Z,40.13
2022-12-09T20:56:51.467Z,41.10
2022-12-09T20:59:55.580Z,38.73
2022-12-09T21:02:58.333Z,43.10
2022-12-09T21:06:00.963Z,39.40
2022-12-09T21:09:05.284Z,41.23
2022-12-09T21:12:08.130Z,37.53
2022-12-09T21:15:12.823Z,34.40
2022-12-09T21:18:15.557Z,38.87
2022-12-09T21:21:19.103Z,35.33
2022-12-09T21:24:24.418Z,35.67
2022-12-09T21:27:27.529Z,37.93
2022-12-09T21:30:31.500Z,39.75
2022-12-09T21:33:34.653Z,35.07
2022-12-09T21:36:39.612Z,38.15
2022-12-09T21:39:42.476Z,41.13
2022-12-09T21:42:45.785Z,36.45
2022-12-09T21:45:50.662Z,37.75
2022-12-09T21:48:59.945Z,42.90
2022-12-09T21:52:07.273Z,38.80
2022-12-09T21:55:11.859Z,36.23
2022-12-09T21:58:15.072Z,34.43
2022-12-09T22:01:21.504Z,36.40
2022-12-09T22:04:24.119Z,37.60
2022-12-09T22:07:26.729Z,35.93
2022-12-09T22:10:30.370Z,35.23
2022-12-09T22:13:39.010Z,39.92
2022-12-09T22:16:45.765Z,42.40
2022-12-09T22:20:06.281Z,34.80
2022-12-09T22:23:12.777Z,32.43
2022-12-09T22:29:19.527Z,38.63
2022-12-09T22:32:23.682Z,37.23
2022-12-09T22:35:26.688Z,36.10
2022-12-09T22:38:29.350Z,36.63
2022-12-09T22:41:33.912Z,32.00
2022-12-09T22:44:36.506Z,34.97
2022-12-09T22:47:40.537Z,35.47
2022-12-09T22:50:43.176Z,39.40
2022-12-09T22:53:46.403Z,37.40
2022-12-09T22:56:49.126Z,30.65
2022-12-09T22:59:51.754Z,39.63
2022-12-09T23:02:56.041Z,32.37
2022-12-09T23:06:02.316Z,35.17
2022-12-09T23:09:05.822Z,37.67
2022-12-09T23:12:08.989Z,35.50
2022-12-09T23:15:12.373Z,42.55
2022-12-09T23:18:16.415Z,39.15
2022-12-09T23:21:22.483Z,33.07
2022-12-09T23:24:25.279Z,34.67
2022-12-09T23:27:28.162Z,35.77
2022-12-09T23:30:30.977Z,32.13
2022-12-09T23:33:36.314Z,34.47
2022-12-09T23:36:41.227Z,30.07
2022-12-09T23:39:44.164Z,36.27
2022-12-09T23:42:46.781Z,32.53
2022-12-09T23:45:49.404Z,32.90
2022-12-09T23:48:54.698Z,31.73
2022-12-09T23:51:57.345Z,34.93
2022-12-09T23:55:04.354Z,37.33
2022-12-09T23:58:07.266Z,33.93
